createdAt,value
2023-03-21T00:01:34.500Z,14.40
2023-03-21T00:03:38.192Z,14.60
2023-03-21T00:05:43.093Z,14.60
2023-03-21T00:07:45.716Z,11.90
2023-03-21T00:09:59.105Z,12.90
2023-03-21T00:12:09.772Z,10.80
2023-03-21T00:14:18.966Z,13.00
2023-03-21T00:16:25.180Z,13.20
2023-03-21T00:18:29.399Z,12.50
2023-03-21T00:20:41.179Z,10.90
2023-03-21T00:22:45.245Z,10.90
2023-03-21T00:24:47.751Z,10.30
2023-03-21T00:26:51.109Z,10.30
2023-03-21T00:28:53.712Z,12.10
2023-03-21T00:31:00.300Z,11.60
2023-03-21T00:33:19.691Z,9.50
2023-03-21T00:35:57.978Z,10.10
2023-03-21T00:40:16.254Z,12.20
2023-03-21T00:42:26.382Z,10.10
2023-03-21T00:44:29.187Z,10.40
2023-03-21T00:46:42.721Z,10.80
2023-03-21T00:48:50.682Z,12.00
2023-03-21T00:51:02.978Z,9.90
2023-03-21T00:53:08.943Z,10.40
2023-03-21T00:55:18.062Z,11.30
2023-03-21T00:57:29.296Z,9.60
2023-03-21T00:59:39.375Z,9.20
2023-03-21T01:01:41.932Z,8.90
2023-03-21T01:03:51.903Z,10.10
2023-03-21T01:06:07.568Z,10.40
2023-03-21T01:08:24.484Z,8.10
2023-03-21T01:10:29.368Z,10.60
2023-03-21T01:12:31.968Z,8.90
2023-03-21T01:14:34.738Z,12.00
2023-03-21T01:16:38.532Z,9.60
2023-03-21T01:18:42.056Z,9.00
2023-03-21T01:20:45.961Z,8.90
2023-03-21T01:22:49.092Z,10.20
2023-03-21T01:24:58.604Z,9.70
2023-03-21T01:27:05.997Z,11.40
2023-03-21T01:29:09.020Z,11.20
2023-03-21T01:31:14.891Z,11.70
2023-03-21T01:33:19.250Z,13.20
2023-03-21T01:35:22.040Z,12.40
2023-03-21T01:37:26.559Z,11.20
2023-03-21T01:39:29.363Z,14.80
2023-03-21T01:41:44.336Z,11.30
2023-03-21T01:43:56.160Z,9.20
2023-03-21T01:46:10.878Z,9.70
2023-03-21T01:48:31.896Z,12.80
2023-03-21T01:50:37.044Z,10.30
2023-03-21T01:53:04.494Z,10.20
2023-03-21T01:55:14.951Z,10.00
2023-03-21T01:57:43.525Z,9.40
2023-03-21T01:59:55.374Z,9.60
2023-03-21T02:02:31.404Z,10.00
2023-03-21T02:04:56.246Z,9.90
2023-03-21T02:07:08.999Z,11.30
2023-03-21T02:09:28.052Z,9.30
2023-03-21T02:11:32.239Z,8.70
2023-03-21T02:13:36.337Z,12.20
2023-03-21T02:15:42.054Z,10.20
2023-03-21T02:18:20.866Z,8.70
2023-03-21T02:20:52.258Z,9.60
2023-03-21T02:23:16.266Z,9.50
2023-03-21T02:25:43.345Z,10.60
2023-03-21T02:27:55.869Z,8.80
2023-03-21T02:32:25.390Z,8.20
2023-03-21T02:35:00.823Z,9.80
2023-03-21T02:37:36.637Z,8.60
2023-03-21T02:39:56.371Z,9.60
2023-03-21T02:44:31.562Z,8.00
2023-03-21T02:46:49.177Z,9.70
2023-03-21T02:51:09.315Z,8.90
2023-03-21T02:53:28.146Z,9.90
2023-03-21T02:55:35.954Z,8.80
2023-03-21T02:57:43.942Z,8.50
2023-03-21T02:59:55.673Z,11.30
2023-03-21T03:02:06.052Z,10.10
2023-03-21T03:04:23.055Z,10.30
2023-03-21T03:06:33.346Z,11.10
2023-03-21T03:09:08.612Z,10.30
2023-03-21T03:11:30.070Z,10.10
2023-03-21T03:13:35.468Z,10.60
2023-03-21T03:16:02.072Z,12.50
2023-03-21T03:18:21.429Z,9.30
2023-03-21T03:21:07.769Z,9.80
2023-03-21T03:23:19.246Z,9.00
2023-03-21T03:25:43.280Z,9.60
2023-03-21T03:27:51.304Z,10.00
2023-03-21T03:29:55.505Z,12.40
2023-03-21T03:32:25.753Z,10.20
2023-03-21T03:34:40.605Z,9.20
2023-03-21T03:36:51.552Z,9.50
2023-03-21T03:38:56.248Z,11.80
2023-03-21T03:41:08.121Z,11.50
2023-03-21T03:43:24.463Z,9.50
2023-03-21T03:45:35.187Z,9.70
2023-03-21T03:47:56.025Z,9.00
2023-03-21T03:50:13.871Z,8.50
2023-03-21T03:52:23.788Z,9.00
2023-03-21T03:54:39.357Z,11.40
2023-03-21T03:56:43.472Z,10.80
2023-03-21T03:58:46.446Z,8.50
2023-03-21T04:00:54.382Z,8.80
2023-03-21T04:02:59.163Z,8.80
2023-03-21T04:05:04.184Z,11.00
2023-03-21T04:07:07.882Z,10.80
2023-03-21T04:09:20.516Z,12.10
2023-03-21T04:11:28.233Z,13.10
2023-03-21T04:13:31.491Z,12.70
2023-03-21T04:15:44.528Z,14.00
2023-03-21T04:17:50.596Z,13.70
2023-03-21T04:19:59.980Z,14.80
2023-03-21T04:22:10.030Z,16.40
2023-03-21T04:24:15.294Z,15.50
2023-03-21T04:26:18.077Z,18.20
2023-03-21T04:28:37.286Z,16.90
2023-03-21T04:31:05.288Z,17.80
2023-03-21T04:35:27.263Z,14.10
2023-03-21T04:37:33.933Z,16.10
2023-03-21T04:39:37.174Z,15.70
2023-03-21T04:41:46.801Z,15.10
2023-03-21T04:43:49.643Z,14.40
2023-03-21T04:45:52.634Z,16.10
2023-03-21T04:47:57.353Z,14.30
2023-03-21T04:50:00.804Z,17.00
2023-03-21T04:52:03.771Z,15.20
2023-03-21T04:56:10.288Z,15.90
2023-03-21T04:58:13.299Z,14.70
2023-03-21T05:00:16.645Z,16.50
2023-03-21T05:02:21.271Z,15.30
2023-03-21T05:04:25.174Z,17.40
2023-03-21T05:06:28.315Z,14.60
2023-03-21T05:08:32.218Z,17.20
2023-03-21T05:10:36.734Z,17.70
2023-03-21T05:12:39.808Z,14.40
2023-03-21T05:14:42.410Z,12.90
2023-03-21T05:16:53.504Z,12.80
2023-03-21T05:19:10.782Z,11.00
2023-03-21T05:21:18.295Z,13.80
2023-03-21T05:23:22.946Z,11.10
2023-03-21T05:25:35.425Z,12.70
2023-03-21T05:27:46.225Z,12.80
2023-03-21T05:29:51.118Z,11.60
2023-03-21T05:31:58.749Z,12.60
2023-03-21T05:34:08.424Z,11.80
2023-03-21T05:36:12.442Z,12.60
2023-03-21T05:38:15.235Z,13.20
2023-03-21T05:40:25.801Z,13.60
2023-03-21T05:42:33.322Z,11.20
2023-03-21T05:44:37.171Z,14.30
2023-03-21T05:46:40.468Z,14.70
2023-03-21T05:48:43.163Z,14.90
2023-03-21T05:50:50.784Z,13.00
2023-03-21T05:52:56.088Z,13.70
2023-03-21T05:55:04.027Z,15.90
2023-03-21T05:57:07.200Z,15.10
2023-03-21T05:59:34.424Z,17.20
2023-03-21T06:01:37.502Z,16.60
2023-03-21T06:03:44.982Z,14.80
2023-03-21T06:06:07.819Z,14.70
2023-03-21T06:08:14.529Z,14.50
2023-03-21T06:10:21.256Z,14.10
2023-03-21T06:12:24.568Z,14.40
2023-03-21T06:14:59.725Z,13.90
2023-03-21T06:17:25.746Z,14.80
2023-03-21T06:19:32.779Z,12.80
2023-03-21T06:21:45.831Z,16.50
2023-03-21T06:23:52.924Z,15.20
2023-03-21T06:25:55.814Z,16.40
2023-03-21T06:28:02.257Z,14.60
2023-03-21T06:30:07.111Z,15.00
2023-03-21T06:32:14.289Z,14.40
2023-03-21T06:34:17.277Z,13.40
2023-03-21T06:36:30.292Z,15.80
2023-03-21T06:38:39.868Z,14.20
2023-03-21T06:40:42.684Z,12.60
2023-03-21T06:42:46.053Z,17.70
2023-03-21T06:44:49.566Z,13.00
2023-03-21T06:46:54.204Z,14.10
2023-03-21T06:48:57.805Z,12.80
2023-03-21T06:51:01.102Z,12.80
2023-03-21T06:53:05.151Z,12.10
2023-03-21T06:55:10.373Z,13.90
2023-03-21T06:57:14.359Z,10.50
2023-03-21T06:59:17.589Z,12.30
2023-03-21T07:01:35.518Z,14.60
2023-03-21T07:03:41.809Z,15.30
2023-03-21T07:05:44.794Z,15.30
2023-03-21T07:07:51.491Z,15.60
2023-03-21T07:09:56.174Z,15.10
2023-03-21T07:11:59.673Z,14.80
2023-03-21T07:14:12.161Z,16.20
2023-03-21T07:16:17.108Z,16.00
2023-03-21T07:18:20.631Z,16.60
2023-03-21T07:20:23.720Z,15.50
2023-03-21T07:22:27.056Z,15.10
2023-03-21T07:24:29.883Z,13.50
2023-03-21T07:26:33.238Z,12.40
2023-03-21T07:28:36.187Z,13.30
2023-03-21T07:30:44.020Z,13.70
2023-03-21T07:32:53.929Z,13.50
2023-03-21T07:35:07.700Z,12.60
2023-03-21T07:37:10.853Z,13.50
2023-03-21T07:39:13.495Z,12.80
2023-03-21T07:43:20.514Z,13.20
2023-03-21T07:45:27.521Z,13.60
2023-03-21T07:47:30.831Z,13.10
2023-03-21T07:49:37.727Z,13.50
2023-03-21T07:51:40.465Z,12.60
2023-03-21T07:53:44.286Z,13.30
2023-03-21T07:55:56.383Z,12.90
2023-03-21T07:57:59.431Z,12.10
2023-03-21T08:00:04.107Z,14.40
2023-03-21T08:02:17.380Z,14.40
2023-03-21T08:04:22.534Z,15.30
2023-03-21T08:06:28.770Z,13.90
2023-03-21T08:08:31.632Z,12.50
2023-03-21T08:10:36.589Z,15.30
2023-03-21T08:12:41.273Z,14.90
2023-03-21T08:14:43.956Z,13.10
2023-03-21T08:16:46.743Z,15.50
2023-03-21T08:18:49.778Z,11.80
2023-03-21T08:20:57.096Z,12.10
2023-03-21T08:23:00.674Z,13.00
2023-03-21T08:25:07.058Z,12.60
2023-03-21T08:27:10.019Z,12.10
2023-03-21T08:29:13.796Z,11.20
2023-03-21T08:31:20.306Z,12.60
2023-03-21T08:33:26.552Z,13.00
2023-03-21T08:35:41.138Z,13.10
2023-03-21T08:37:44.991Z,11.00
2023-03-21T08:39:48.452Z,14.60
2023-03-21T08:41:51.470Z,12.60
2023-03-21T08:43:54.199Z,11.80
2023-03-21T08:45:57.167Z,13.10
2023-03-21T08:47:59.970Z,14.20
2023-03-21T08:50:03.874Z,15.10
2023-03-21T08:52:07.059Z,11.60
2023-03-21T08:54:19.787Z,14.10
2023-03-21T08:56:22.632Z,10.90
2023-03-21T08:58:25.552Z,16.60
2023-03-21T09:00:28.943Z,13.90
2023-03-21T09:02:31.712Z,15.20
2023-03-21T09:04:34.826Z,16.00
2023-03-21T09:06:38.612Z,15.10
2023-03-21T09:08:41.995Z,14.70
2023-03-21T09:10:44.667Z,14.80
2023-03-21T09:12:48.359Z,13.10
2023-03-21T09:14:53.252Z,13.20
2023-03-21T09:16:56.205Z,14.60
2023-03-21T09:19:00.129Z,13.20
2023-03-21T09:21:12.735Z,13.60
2023-03-21T09:23:17.183Z,14.90
2023-03-21T09:25:21.016Z,13.70
2023-03-21T09:27:25.945Z,16.50
2023-03-21T09:29:29.624Z,17.20
2023-03-21T09:31:33.259Z,16.10
2023-03-21T09:33:36.441Z,14.80
2023-03-21T09:35:39.423Z,16.20
2023-03-21T09:37:43.939Z,17.30
2023-03-21T09:39:46.895Z,13.20
2023-03-21T09:42:12.598Z,17.20
2023-03-21T09:44:59.959Z,23.60
2023-03-21T09:47:33.130Z,12.40
2023-03-21T09:49:40.841Z,13.20
2023-03-21T09:51:52.064Z,13.00
2023-03-21T09:53:57.786Z,13.10
2023-03-21T09:56:02.550Z,12.70
2023-03-21T09:58:32.006Z,9.50
2023-03-21T10:00:40.691Z,10.80
2023-03-21T10:02:49.479Z,14.50
2023-03-21T10:04:53.043Z,12.30
2023-03-21T10:07:02.230Z,16.30
2023-03-21T10:09:11.387Z,14.80
2023-03-21T10:11:24.064Z,13.60
2023-03-21T10:13:33.840Z,18.30
2023-03-21T10:15:38.138Z,16.20
2023-03-21T10:17:43.790Z,21.10
2023-03-21T10:19:50.297Z,27.20
2023-03-21T10:22:01.195Z,23.20
2023-03-21T10:24:12.309Z,29.90
2023-03-21T10:26:21.094Z,15.70
2023-03-21T10:28:42.331Z,17.20
2023-03-21T10:30:59.071Z,13.80
2023-03-21T10:33:05.858Z,12.80
2023-03-21T10:35:13.507Z,16.80
2023-03-21T10:37:17.614Z,14.30
2023-03-21T10:39:29.943Z,15.20
2023-03-21T10:41:33.930Z,12.60
2023-03-21T10:43:42.163Z,12.10
2023-03-21T10:45:47.338Z,13.70
2023-03-21T10:47:51.666Z,14.50
2023-03-21T10:50:07.173Z,11.70
2023-03-21T10:52:13.794Z,12.50
2023-03-21T10:54:32.626Z,11.40
2023-03-21T10:56:40.917Z,10.60
2023-03-21T10:58:48.150Z,12.20
2023-03-21T11:01:00.724Z,15.60
2023-03-21T11:03:05.525Z,10.00
2023-03-21T11:05:27.531Z,18.60
2023-03-21T11:07:31.803Z,12.20
2023-03-21T11:10:03.286Z,14.00
2023-03-21T11:12:15.777Z,13.40
2023-03-21T11:14:47.589Z,12.70
2023-03-21T11:16:51.549Z,9.80
2023-03-21T11:19:01.520Z,12.10
2023-03-21T11:21:07.442Z,10.70
2023-03-21T11:23:13.016Z,11.60
2023-03-21T11:25:42.713Z,14.10
2023-03-21T11:27:51.865Z,12.30
2023-03-21T11:29:57.960Z,11.20
2023-03-21T11:34:09.749Z,10.90
2023-03-21T11:36:18.132Z,13.60
2023-03-21T11:38:29.048Z,13.70
2023-03-21T11:40:36.775Z,13.60
2023-03-21T11:42:43.468Z,13.70
2023-03-21T11:44:47.696Z,11.90
2023-03-21T11:46:57.498Z,11.10
2023-03-21T11:49:04.325Z,13.50
2023-03-21T11:51:27.854Z,15.20
2023-03-21T11:53:46.648Z,11.00
2023-03-21T11:56:20.638Z,10.70
2023-03-21T11:59:01.197Z,16.00
2023-03-21T12:01:51.955Z,18.70
2023-03-21T12:04:26.178Z,14.60
2023-03-21T12:06:37.007Z,15.60
2023-03-21T12:09:04.049Z,13.60
2023-03-21T12:11:48.259Z,13.70
2023-03-21T12:14:40.226Z,18.60
2023-03-21T12:17:06.403Z,14.30
2023-03-21T12:19:42.746Z,11.70
2023-03-21T12:21:47.550Z,13.60
2023-03-21T12:24:10.453Z,15.00
2023-03-21T12:26:29.637Z,14.30
2023-03-21T12:28:47.230Z,10.90
2023-03-21T12:31:04.476Z,13.00
2023-03-21T12:33:21.494Z,13.10
2023-03-21T12:36:03.214Z,16.40
2023-03-21T12:38:13.543Z,15.90
2023-03-21T12:40:22.246Z,13.70
2023-03-21T12:42:42.627Z,11.80
2023-03-21T12:44:52.126Z,12.10
2023-03-21T12:47:30.804Z,17.20
2023-03-21T12:49:36.702Z,14.60
2023-03-21T12:51:47.695Z,13.30
2023-03-21T12:54:00.229Z,12.90
2023-03-21T12:56:12.020Z,12.40
2023-03-21T12:58:19.856Z,14.10
2023-03-21T13:04:09.720Z,12.60
2023-03-21T13:06:15.566Z,14.10
2023-03-21T13:08:21.183Z,14.60
2023-03-21T13:10:24.424Z,13.90
2023-03-21T13:13:10.423Z,15.40
2023-03-21T13:15:32.108Z,12.10
2023-03-21T13:17:45.374Z,13.20
2023-03-21T13:19:59.509Z,15.30
2023-03-21T13:22:28.693Z,14.00
2023-03-21T13:24:56.401Z,13.20
2023-03-21T13:27:06.931Z,12.10
2023-03-21T13:29:14.520Z,11.60
2023-03-21T13:31:22.404Z,15.30
2023-03-21T13:33:30.235Z,11.00
2023-03-21T13:35:38.258Z,12.80
2023-03-21T13:37:49.299Z,13.80
2023-03-21T13:39:52.219Z,16.90
2023-03-21T13:41:56.190Z,15.00
2023-03-21T13:44:18.853Z,15.70
2023-03-21T13:46:34.133Z,15.80
2023-03-21T13:48:59.384Z,15.40
2023-03-21T13:51:04.730Z,12.80
2023-03-21T13:53:16.076Z,15.30
2023-03-21T13:55:20.616Z,15.10
2023-03-21T13:57:33.304Z,14.10
2023-03-21T13:59:41.008Z,13.90
2023-03-21T14:02:00.168Z,13.30
2023-03-21T14:04:15.565Z,10.60
2023-03-21T14:06:18.960Z,13.50
2023-03-21T14:08:34.803Z,12.80
2023-03-21T14:10:43.529Z,13.90
2023-03-21T14:12:47.384Z,17.50
2023-03-21T14:15:15.812Z,17.70
2023-03-21T14:17:26.146Z,11.00
2023-03-21T14:19:31.196Z,13.00
2023-03-21T14:21:36.145Z,12.20
2023-03-21T14:23:39.374Z,14.30
2023-03-21T14:25:47.497Z,13.00
2023-03-21T14:27:55.615Z,16.60
2023-03-21T14:29:59.350Z,12.40
2023-03-21T14:32:05.655Z,12.40
2023-03-21T14:34:12.528Z,10.50
2023-03-21T14:36:23.522Z,11.30
2023-03-21T14:38:32.646Z,11.60
2023-03-21T14:40:36.149Z,11.10
2023-03-21T14:42:47.460Z,12.20
2023-03-21T14:44:55.986Z,11.60
2023-03-21T14:47:06.815Z,11.90
2023-03-21T14:49:25.761Z,9.80
2023-03-21T14:51:29.715Z,10.50
2023-03-21T14:53:36.953Z,9.00
2023-03-21T14:55:46.282Z,11.00
2023-03-21T14:57:49.272Z,11.70
2023-03-21T14:59:55.866Z,11.70
2023-03-21T15:02:03.646Z,11.90
2023-03-21T15:04:07.430Z,8.70
2023-03-21T15:06:21.128Z,10.00
2023-03-21T15:08:26.692Z,11.80
2023-03-21T15:10:31.757Z,11.90
2023-03-21T15:12:34.706Z,11.00
2023-03-21T15:14:38.464Z,12.70
2023-03-21T15:16:41.473Z,10.00
2023-03-21T15:18:45.334Z,10.30
2023-03-21T15:20:51.189Z,11.40
2023-03-21T15:23:03.498Z,9.10
2023-03-21T15:25:08.884Z,9.40
2023-03-21T15:27:17.405Z,8.50
2023-03-21T15:29:20.013Z,8.90
2023-03-21T15:31:25.716Z,8.80
2023-03-21T15:33:28.552Z,9.60
2023-03-21T15:35:38.846Z,10.40
2023-03-21T15:37:41.836Z,9.30
2023-03-21T15:39:49.122Z,9.10
2023-03-21T15:42:01.579Z,14.30
2023-03-21T15:44:10.152Z,14.10
2023-03-21T15:46:16.310Z,12.20
2023-03-21T15:48:29.564Z,15.90
2023-03-21T15:50:37.664Z,9.50
2023-03-21T15:52:41.160Z,10.90
2023-03-21T15:54:48.076Z,9.90
2023-03-21T15:57:03.229Z,11.10
2023-03-21T15:59:14.168Z,9.40
2023-03-21T16:01:19.852Z,10.80
2023-03-21T16:03:30.404Z,9.90
2023-03-21T16:05:34.127Z,10.10
2023-03-21T16:07:36.657Z,9.70
2023-03-21T16:09:42.988Z,9.50
2023-03-21T16:11:50.962Z,10.10
2023-03-21T16:13:54.942Z,11.10
2023-03-21T16:15:57.532Z,10.00
2023-03-21T16:18:03.951Z,10.10
2023-03-21T16:20:20.201Z,10.00
2023-03-21T16:22:22.790Z,12.30
2023-03-21T16:24:25.439Z,9.90
2023-03-21T16:26:31.622Z,9.20
2023-03-21T16:28:34.490Z,10.10
2023-03-21T16:30:38.584Z,11.70
2023-03-21T16:32:41.760Z,9.00
2023-03-21T16:34:46.457Z,10.20
2023-03-21T16:36:49.306Z,9.60
2023-03-21T16:38:53.105Z,10.30
2023-03-21T16:40:55.893Z,9.80
2023-03-21T16:42:58.551Z,12.40
2023-03-21T16:45:01.343Z,10.20
2023-03-21T16:47:04.172Z,10.50
2023-03-21T16:49:18.543Z,9.40
2023-03-21T16:51:30.526Z,11.20
2023-03-21T16:53:33.007Z,10.70
2023-03-21T16:55:37.132Z,12.30
2023-03-21T16:57:40.318Z,13.50
2023-03-21T16:59:43.181Z,12.10
2023-03-21T17:01:47.824Z,12.00
2023-03-21T17:03:50.724Z,11.00
2023-03-21T17:05:53.626Z,12.30
2023-03-21T17:07:56.767Z,13.20
2023-03-21T17:09:59.417Z,11.50
2023-03-21T17:12:02.426Z,12.70
2023-03-21T17:14:05.034Z,12.10
2023-03-21T17:16:09.610Z,12.30
2023-03-21T17:18:13.322Z,13.90
2023-03-21T17:20:25.959Z,13.60
2023-03-21T17:22:28.615Z,13.70
2023-03-21T17:24:31.647Z,14.80
2023-03-21T17:26:34.380Z,18.10
2023-03-21T17:28:37.891Z,23.90
2023-03-21T17:30:41.437Z,22.60
2023-03-21T17:32:44.315Z,20.50
2023-03-21T17:34:48.478Z,19.50
2023-03-21T17:36:51.604Z,16.60
2023-03-21T17:38:55.383Z,15.20
2023-03-21T17:41:00.599Z,17.50
2023-03-21T17:43:03.527Z,16.40
2023-03-21T17:45:07.072Z,17.20
2023-03-21T17:47:12.974Z,16.00
2023-03-21T17:49:16.505Z,14.70
2023-03-21T17:51:20.331Z,17.10
2023-03-21T17:53:23.535Z,19.40
2023-03-21T17:55:26.344Z,21.70
2023-03-21T17:57:28.867Z,20.60
2023-03-21T17:59:31.625Z,22.30
2023-03-21T18:01:35.419Z,25.70
2023-03-21T18:03:38.427Z,30.30
2023-03-21T18:05:41.086Z,31.60
2023-03-21T18:10:12.858Z,35.10
2023-03-21T18:12:15.393Z,31.60
2023-03-21T18:14:27.014Z,152.50
2023-03-21T18:16:31.500Z,33.70
2023-03-21T18:18:34.103Z,75.40
2023-03-21T18:20:54.266Z,103.40
2023-03-21T18:22:57.314Z,108.00
2023-03-21T18:25:00.291Z,44.80
2023-03-21T18:27:03.993Z,64.40
2023-03-21T18:30:13.090Z,45.50
2023-03-21T18:31:29.887Z,36.00
2023-03-21T18:33:33.658Z,25.80
2023-03-21T18:35:38.618Z,22.10
2023-03-21T18:37:42.359Z,22.30
2023-03-21T18:39:46.277Z,21.50
2023-03-21T18:41:48.864Z,21.50
2023-03-21T18:44:02.672Z,56.70
2023-03-21T18:46:13.009Z,22.20
2023-03-21T18:48:16.393Z,21.30
2023-03-21T18:50:20.974Z,36.30
2023-03-21T18:52:26.579Z,21.70
2023-03-21T18:54:30.262Z,26.00
2023-03-21T18:57:26.803Z,19.60
2023-03-21T18:58:57.161Z,14.00
2023-03-21T19:01:00.785Z,14.50
2023-03-21T19:03:18.819Z,18.20
2023-03-21T19:05:25.542Z,15.50
2023-03-21T19:07:28.169Z,18.00
2023-03-21T19:09:32.178Z,27.70
2023-03-21T19:11:35.876Z,30.10
2023-03-21T19:13:38.696Z,25.00
2023-03-21T19:15:42.117Z,24.60
2023-03-21T19:18:30.341Z,23.70
2023-03-21T19:20:08.717Z,23.50
2023-03-21T19:22:12.768Z,26.30
2023-03-21T19:24:27.114Z,26.50
2023-03-21T19:26:31.145Z,27.70
2023-03-21T19:28:33.789Z,26.40
2023-03-21T19:30:36.782Z,26.50
2023-03-21T19:32:39.786Z,29.50
2023-03-21T19:34:42.538Z,29.10
2023-03-21T19:36:50.748Z,31.40
2023-03-21T19:38:53.929Z,26.50
2023-03-21T19:41:00.482Z,24.90
2023-03-21T19:43:21.666Z,23.50
2023-03-21T19:45:26.505Z,24.20
2023-03-21T19:47:29.044Z,22.40
2023-03-21T19:50:00.725Z,24.40
2023-03-21T19:51:56.042Z,25.30
2023-03-21T19:53:59.992Z,24.70
2023-03-21T19:56:04.891Z,48.80
2023-03-21T19:58:16.143Z,26.50
2023-03-21T20:00:20.019Z,24.70
2023-03-21T20:02:35.094Z,33.50
2023-03-21T20:04:39.443Z,25.30
2023-03-21T20:06:42.106Z,26.30
2023-03-21T20:11:07.495Z,31.70
2023-03-21T20:13:10.129Z,21.70
2023-03-21T20:15:19.199Z,25.80
2023-03-21T20:17:22.934Z,26.30
2023-03-21T20:19:25.775Z,31.10
2023-03-21T20:21:34.061Z,34.40
2023-03-21T20:23:43.990Z,34.00
2023-03-21T20:25:47.144Z,30.40
2023-03-21T20:28:09.210Z,38.30
2023-03-21T20:30:16.123Z,33.80
2023-03-21T20:34:21.751Z,31.10
2023-03-21T20:36:39.417Z,32.20
2023-03-21T20:38:46.706Z,33.40
2023-03-21T20:40:51.025Z,34.60
2023-03-21T20:42:56.185Z,33.60
2023-03-21T20:45:00.813Z,31.70
2023-03-21T20:47:05.533Z,34.50
2023-03-21T20:49:08.137Z,33.50
2023-03-21T20:52:14.788Z,31.30
2023-03-21T20:53:37.513Z,30.60
2023-03-21T20:55:40.433Z,33.90
2023-03-21T20:57:44.325Z,34.70
2023-03-21T20:59:48.545Z,31.30
2023-03-21T21:01:51.170Z,28.70
2023-03-21T21:03:57.544Z,30.00
2023-03-21T21:06:00.496Z,28.80
2023-03-21T21:08:03.775Z,27.30
2023-03-21T21:10:12.760Z,30.50
2023-03-21T21:12:17.538Z,28.70
2023-03-21T21:14:20.219Z,28.20
2023-03-21T21:16:23.064Z,28.70
2023-03-21T21:18:25.932Z,28.50
2023-03-21T21:20:28.721Z,28.70
2023-03-21T21:22:31.571Z,31.50
2023-03-21T21:24:36.189Z,27.50
2023-03-21T21:26:41.012Z,26.80
2023-03-21T21:28:47.909Z,24.90
2023-03-21T21:30:58.670Z,25.80
2023-03-21T21:33:01.653Z,23.50
2023-03-21T21:35:04.528Z,20.80
2023-03-21T21:37:07.378Z,22.20
2023-03-21T21:39:09.847Z,22.40
2023-03-21T21:41:18.699Z,21.20
2023-03-21T21:43:27.245Z,21.60
2023-03-21T21:45:29.974Z,22.60
2023-03-21T21:47:32.950Z,23.60
2023-03-21T21:49:35.950Z,23.30
2023-03-21T21:51:41.909Z,22.90
2023-03-21T21:53:46.319Z,25.70
2023-03-21T21:55:50.234Z,24.90
2023-03-21T21:57:58.083Z,26.00
2023-03-21T22:00:02.032Z,23.10
2023-03-21T22:02:14.640Z,24.60
2023-03-21T22:04:18.155Z,23.90
2023-03-21T22:06:21.016Z,24.20
2023-03-21T22:08:23.640Z,24.60
2023-03-21T22:10:27.587Z,26.20
2023-03-21T22:12:30.471Z,23.30
2023-03-21T22:14:34.087Z,26.10
2023-03-21T22:16:37.775Z,21.90
2023-03-21T22:18:40.455Z,24.40
2023-03-21T22:20:44.019Z,26.90
2023-03-21T22:22:47.423Z,23.30
2023-03-21T22:24:50.333Z,26.10
2023-03-21T22:26:59.236Z,24.30
2023-03-21T22:29:02.030Z,23.70
2023-03-21T22:31:17.651Z,23.70
2023-03-21T22:33:22.247Z,26.70
2023-03-21T22:35:24.815Z,25.10
2023-03-21T22:37:30.666Z,26.10
2023-03-21T22:39:33.420Z,24.80
2023-03-21T22:41:36.051Z,25.90
2023-03-21T22:43:38.674Z,24.80
2023-03-21T22:45:41.891Z,27.50
2023-03-21T22:47:44.539Z,24.90
2023-03-21T22:49:47.158Z,26.80
2023-03-21T22:51:49.768Z,31.60
2023-03-21T22:53:52.502Z,27.80
2023-03-21T22:55:55.763Z,26.20
2023-03-21T22:57:58.356Z,27.50
2023-03-21T23:00:01.396Z,27.20
2023-03-21T23:02:04.048Z,28.00
2023-03-21T23:04:06.990Z,28.20
2023-03-21T23:06:09.731Z,25.40
2023-03-21T23:08:12.941Z,24.90
2023-03-21T23:10:15.610Z,22.80
2023-03-21T23:12:18.764Z,20.90
2023-03-21T23:14:22.510Z,21.50
2023-03-21T23:16:28.240Z,20.60
2023-03-21T23:18:33.758Z,20.20
2023-03-21T23:20:36.912Z,21.40
2023-03-21T23:22:40.493Z,21.40
2023-03-21T23:24:43.758Z,22.90
2023-03-21T23:26:46.594Z,22.00
2023-03-21T23:28:50.145Z,23.80
2023-03-21T23:30:53.026Z,21.60
2023-03-21T23:32:56.191Z,23.20
2023-03-21T23:34:59.488Z,22.20
2023-03-21T23:37:02.299Z,22.30
2023-03-21T23:39:04.912Z,25.30
2023-03-21T23:41:09.944Z,24.90
2023-03-21T23:43:12.628Z,26.40
2023-03-21T23:45:15.629Z,27.20
2023-03-21T23:47:19.304Z,31.10
2023-03-21T23:49:22.179Z,28.10
2023-03-21T23:51:24.748Z,32.10
2023-03-21T23:53:27.462Z,35.90
2023-03-21T23:55:31.773Z,47.90
2023-03-21T23:57:35.131Z,36.50
2023-03-21T23:59:37.599Z,35.30
